Time,TemperatureF,DewpointF,PressureIn,WindDirection,WindDirectionDegrees,WindSpeedMPH,WindSpeedGustMPH,Humidity,HourlyPrecipIn,Conditions,Clouds,dailyrainin,SoftwareType,DateUTC
2013-02-10 00:07:00,11.9,0.0,30.19,NW,319,4.0,9.0,60,0.00,,,0.00,weatherlink.com 1.10,2013-02-10 05:07:00,
2013-02-10 00:22:00,11.8,0.0,30.20,WNW,295,2.0,6.0,60,0.00,,,0.00,weatherlink.com 1.10,2013-02-10 05:22:00,
2013-02-10 00:37:00,11.7,0.0,30.19,NW,309,4.0,7.0,60,0.00,,,0.00,weatherlink.com 1.10,2013-02-10 05:37:00,
2013-02-10 00:52:00,11.8,0.0,30.20,WNW,295,5.0,8.0,60,0.00,,,0.00,weatherlink.com 1.10,2013-02-10 05:52:00,
2013-02-10 01:07:00,11.8,0.0,30.21,NW,307,4.0,9.0,59,0.00,,,0.00,weatherlink.com 1.10,2013-02-10 06:07:00,
2013-02-10 01:37:00,11.9,0.0,30.21,NNW,328,3.0,8.0,58,0.00,,,0.00,weatherlink.com 1.10,2013-02-10 06:37:00,
2013-02-10 01:52:00,12.3,-1.0,30.21,NNW,335,5.0,14.0,56,0.00,,,0.00,weatherlink.com 1.10,2013-02-10 06:52:00,
2013-02-10 02:08:00,12.1,-1.0,30.21,North,6,2.0,9.0,56,0.00,,,0.00,weatherlink.com 1.10,2013-02-10 07:08:00,
2013-02-10 02:23:00,12.4,-1.0,30.21,North,350,3.0,10.0,55,0.00,,,0.00,weatherlink.com 1.10,2013-02-10 07:23:00,
2013-02-10 02:38:00,12.2,-1.0,30.22,NW,325,2.0,7.0,55,0.00,,,0.00,weatherlink.com 1.10,2013-02-10 07:38:00,
2013-02-10 02:53:00,11.9,-2.0,30.22,WNW,293,1.0,5.0,55,0.00,,,0.00,weatherlink.com 1.10,2013-02-10 07:53:00,
2013-02-10 03:08:00,12.0,-1.0,30.23,NNE,19,1.0,7.0,55,0.00,,,0.00,weatherlink.com 1.10,2013-02-10 08:08:00,
2013-02-10 03:23:00,11.4,-2.0,30.23,NNE,20,2.0,5.0,56,0.00,,,0.00,weatherlink.com 1.10,2013-02-10 08:23:00,
2013-02-10 03:38:00,10.3,-2.0,30.23,NW,319,3.0,6.0,59,0.00,,,0.00,weatherlink.com 1.10,2013-02-10 08:38:00,
2013-02-10 03:53:00,10.2,-2.0,30.24,NW,319,2.0,8.0,59,0.00,,,0.00,weatherlink.com 1.10,2013-02-10 08:53:00,
2013-02-10 04:24:00,9.7,-2.0,30.25,NW,308,4.0,8.0,60,0.00,,,0.00,weatherlink.com 1.10,2013-02-10 09:24:00,
2013-02-10 04:39:00,9.7,-2.0,30.24,NNW,335,5.0,9.0,60,0.00,,,0.00,weatherlink.com 1.10,2013-02-10 09:39:00,
2013-02-10 04:54:00,9.9,-2.0,30.25,NW,314,1.0,9.0,59,0.00,,,0.00,weatherlink.com 1.10,2013-02-10 09:54:00,
2013-02-10 05:09:00,10.0,-2.0,30.25,North,355,2.0,8.0,59,0.00,,,0.00,weatherlink.com 1.10,2013-02-10 10:09:00,
2013-02-10 05:24:00,10.1,-2.0,30.26,NW,308,4.0,10.0,58,0.00,,,0.00,weatherlink.com 1.10,2013-02-10 10:24:00,
2013-02-10 05:39:00,10.2,-2.0,30.27,NW,308,2.0,7.0,57,0.00,,,0.00,weatherlink.com 1.10,2013-02-10 10:39:00,
2013-02-10 05:54:00,10.1,-3.0,30.29,North,8,1.0,6.0,57,0.00,,,0.00,weatherlink.com 1.10,2013-02-10 10:54:00,
2013-02-10 06:09:00,10.0,-3.0,30.29,NNE,20,2.0,6.0,57,0.00,,,0.00,weatherlink.com 1.10,2013-02-10 11:09:00,
2013-02-10 06:24:00,10.1,-3.0,30.29,East,79,2.0,7.0,57,0.00,,,0.00,weatherlink.com 1.10,2013-02-10 11:24:00,
2013-02-10 06:39:00,10.1,-3.0,30.30,NNW,328,2.0,7.0,57,0.00,,,0.00,weatherlink.com 1.10,2013-02-10 11:39:00,
2013-02-10 06:54:00,10.0,-3.0,30.31,NW,314,2.0,6.0,57,0.00,,,0.00,weatherlink.com 1.10,2013-02-10 11:54:00,
2013-02-10 07:09:00,10.2,-3.0,30.31,WNW,294,4.0,7.0,56,0.00,,,0.00,weatherlink.com 1.10,2013-02-10 12:09:00,
2013-02-10 07:24:00,10.7,-3.0,30.32,NNW,346,2.0,6.0,55,0.00,,,0.00,weatherlink.com 1.10,2013-02-10 12:24:00,
2013-02-10 07:39:00,11.0,-3.0,30.33,NW,316,1.0,8.0,54,0.00,,,0.00,weatherlink.com 1.10,2013-02-10 12:39:00,
2013-02-10 07:55:00,11.5,-3.0,30.34,NNE,19,6.0,8.0,53,0.00,,,0.00,weatherlink.com 1.10,2013-02-10 12:55:00,
2013-02-10 08:10:00,12.4,-3.0,30.35,West,267,2.0,8.0,51,0.00,,,0.00,weatherlink.com 1.10,2013-02-10 13:10:00,
2013-02-10 08:25:00,13.1,-3.0,30.36,WNW,301,3.0,5.0,49,0.00,,,0.00,weatherlink.com 1.10,2013-02-10 13:25:00,
2013-02-10 08:40:00,13.7,-2.0,30.36,NNW,328,0.0,5.0,49,0.00,,,0.00,weatherlink.com 1.10,2013-02-10 13:40:00,
2013-02-10 08:55:00,14.7,-1.0,30.37,NNW,340,1.0,2.0,49,0.00,,,0.00,weatherlink.com 1.10,2013-02-10 13:55:00,
2013-02-10 09:10:00,15.8,-2.0,30.37,NNE,20,0.0,5.0,46,0.00,,,0.00,weatherlink.com 1.10,2013-02-10 14:10:00,
2013-02-10 09:25:00,17.1,-2.0,30.37,WNW,283,2.0,6.0,44,0.00,,,0.00,weatherlink.com 1.10,2013-02-10 14:25:00,
2013-02-10 09:40:00,18.5,-1.0,30.38,ENE,61,2.0,6.0,42,0.00,,,0.00,weatherlink.com 1.10,2013-02-10 14:40:00,
2013-02-10 09:55:00,20.1,0.0,30.38,NW,326,1.0,5.0,41,0.00,,,0.00,weatherlink.com 1.10,2013-02-10 14:55:00,
2013-02-10 10:10:00,21.2,-1.0,30.38,NW,314,2.0,7.0,38,0.00,,,0.00,weatherlink.com 1.10,2013-02-10 15:10:00,
2013-02-10 10:25:00,22.3,-1.0,30.39,WNW,301,3.0,6.0,36,0.00,,,0.00,weatherlink.com 1.10,2013-02-10 15:25:00,
2013-02-10 10:40:00,23.5,-1.0,30.39,North,349,1.0,7.0,35,0.00,,,0.00,weatherlink.com 1.10,2013-02-10 15:40:00,
2013-02-10 10:59:00,24.3,-1.0,30.38,West,266,3.0,-999.0,34,-99.99,,,0.00,weatherlink.com 1.10,2013-02-10 15:59:00,
2013-02-10 11:10:00,25.7,1.0,30.38,WSW,249,3.0,5.0,35,0.00,,,0.00,weatherlink.com 1.10,2013-02-10 16:10:00,
2013-02-10 11:25:00,26.5,1.0,30.39,NNE,13,1.0,7.0,33,0.00,,,0.00,weatherlink.com 1.10,2013-02-10 16:25:00,
2013-02-10 11:40:00,27.0,-1.0,30.38,NW,314,0.0,8.0,30,0.00,,,0.00,weatherlink.com 1.10,2013-02-10 16:40:00,
2013-02-10 11:56:00,28.8,2.0,30.38,NW,307,2.0,5.0,31,0.00,,,0.00,weatherlink.com 1.10,2013-02-10 16:56:00,
2013-02-10 12:11:00,28.5,3.0,30.37,NNE,18,2.0,6.0,33,0.00,,,0.00,weatherlink.com 1.10,2013-02-10 17:11:00,
2013-02-10 12:26:00,29.4,1.0,30.37,WSW,245,0.0,4.0,30,0.00,,,0.00,weatherlink.com 1.10,2013-02-10 17:26:00,
2013-02-10 12:41:00,29.4,1.0,30.37,NW,307,1.0,7.0,29,0.00,,,0.00,weatherlink.com 1.10,2013-02-10 17:41:00,
2013-02-10 12:56:00,30.3,1.0,30.36,NW,305,2.0,6.0,28,0.00,,,0.00,weatherlink.com 1.10,2013-02-10 17:56:00,
2013-02-10 13:11:00,30.8,2.0,30.35,North,350,1.0,5.0,29,0.00,,,0.00,weatherlink.com 1.10,2013-02-10 18:11:00,
2013-02-10 13:26:00,31.0,1.0,30.34,West,267,2.0,6.0,28,0.00,,,0.00,weatherlink.com 1.10,2013-02-10 18:26:00,
2013-02-10 13:41:00,31.4,1.0,30.33,NW,326,2.0,7.0,27,0.00,,,0.00,weatherlink.com 1.10,2013-02-10 18:41:00,
2013-02-10 13:56:00,31.6,1.0,30.33,North,357,0.0,7.0,27,0.00,,,0.00,weatherlink.com 1.10,2013-02-10 18:56:00,
2013-02-10 14:11:00,32.1,1.0,30.33,NW,318,1.0,6.0,27,0.00,,,0.00,weatherlink.com 1.10,2013-02-10 19:11:00,
2013-02-10 14:26:00,32.3,1.0,30.33,NNW,330,0.0,6.0,26,0.00,,,0.00,weatherlink.com 1.10,2013-02-10 19:26:00,
2013-02-10 14:41:00,32.4,1.0,30.33,NW,314,1.0,6.0,26,0.00,,,0.00,weatherlink.com 1.10,2013-02-10 19:41:00,
2013-02-10 14:56:00,32.8,2.0,30.32,NNW,343,1.0,4.0,27,0.00,,,0.00,weatherlink.com 1.10,2013-02-10 19:56:00,
2013-02-10 15:12:00,32.8,0.0,30.33,NW,325,2.0,6.0,25,0.00,,,0.00,weatherlink.com 1.10,2013-02-10 20:12:00,
2013-02-10 15:27:00,32.6,0.0,30.34,NW,309,4.0,5.0,25,0.00,,,0.00,weatherlink.com 1.10,2013-02-10 20:27:00,
2013-02-10 15:42:00,32.4,0.0,30.34,NW,315,2.0,5.0,25,0.00,,,0.00,weatherlink.com 1.10,2013-02-10 20:42:00,
2013-02-10 15:57:00,32.3,1.0,30.34,NW,316,0.0,4.0,26,0.00,,,0.00,weatherlink.com 1.10,2013-02-10 20:57:00,
2013-02-10 16:12:00,31.6,2.0,30.35,West,278,1.0,2.0,28,0.00,,,0.00,weatherlink.com 1.10,2013-02-10 21:12:00,
2013-02-10 16:27:00,30.9,0.0,30.35,WNW,284,0.0,1.0,27,0.00,,,0.00,weatherlink.com 1.10,2013-02-10 21:27:00,
2013-02-10 16:42:00,30.2,1.0,30.35,NW,317,0.0,2.0,29,0.00,,,0.00,weatherlink.com 1.10,2013-02-10 21:42:00,
2013-02-10 16:57:00,29.8,0.0,30.34,NNE,26,1.0,2.0,28,0.00,,,0.00,weatherlink.com 1.10,2013-02-10 21:57:00,
2013-02-10 17:12:00,29.4,-1.0,30.34,North,358,0.0,1.0,27,0.00,,,0.00,weatherlink.com 1.10,2013-02-10 22:12:00,
2013-02-10 17:27:00,29.2,0.0,30.35,NW,316,1.0,2.0,28,0.00,,,0.00,weatherlink.com 1.10,2013-02-10 22:27:00,
2013-02-10 17:42:00,28.5,1.0,30.36,NW,315,2.0,3.0,31,0.00,,,0.00,weatherlink.com 1.10,2013-02-10 22:42:00,
2013-02-10 17:58:00,28.7,0.0,30.36,NW,309,1.0,4.0,29,0.00,,,0.00,weatherlink.com 1.10,2013-02-10 22:58:00,
2013-02-10 18:13:00,28.2,0.0,30.35,NW,314,2.0,5.0,30,0.00,,,0.00,weatherlink.com 1.10,2013-02-10 23:13:00,
2013-02-10 18:28:00,28.3,0.0,30.35,NW,315,2.0,4.0,29,0.00,,,0.00,weatherlink.com 1.10,2013-02-10 23:28:00,
2013-02-10 18:43:00,27.8,2.0,30.34,SE,125,1.0,3.0,33,0.00,,,0.00,weatherlink.com 1.10,2013-02-10 23:43:00,
2013-02-10 18:58:00,25.8,4.0,30.35,NNW,332,1.0,1.0,39,0.00,,,0.00,weatherlink.com 1.10,2013-02-10 23:58:00,
2013-02-10 19:13:00,24.8,2.0,30.35,WNW,285,0.0,1.0,37,0.00,,,0.00,weatherlink.com 1.10,2013-02-11 00:13:00,
2013-02-10 19:28:00,23.9,2.0,30.35,WNW,285,0.0,0.0,38,0.00,,,0.00,weatherlink.com 1.10,2013-02-11 00:28:00,
2013-02-10 19:43:00,23.4,2.0,30.36,WNW,285,0.0,1.0,39,0.00,,,0.00,weatherlink.com 1.10,2013-02-11 00:43:00,
2013-02-10 19:58:00,23.5,0.0,30.35,WNW,285,0.0,0.0,36,0.00,,,0.00,weatherlink.com 1.10,2013-02-11 00:58:00,
2013-02-10 20:13:00,22.8,2.0,30.35,WNW,285,0.0,1.0,41,0.00,,,0.00,weatherlink.com 1.10,2013-02-11 01:13:00,
2013-02-10 20:28:00,22.2,1.0,30.34,WNW,285,0.0,0.0,39,0.00,,,0.00,weatherlink.com 1.10,2013-02-11 01:28:00,
2013-02-10 20:43:00,22.3,1.0,30.34,WNW,285,0.0,1.0,39,0.00,,,0.00,weatherlink.com 1.10,2013-02-11 01:43:00,
2013-02-10 20:58:00,22.5,1.0,30.34,WNW,287,0.0,2.0,40,0.00,,,0.00,weatherlink.com 1.10,2013-02-11 01:58:00,
2013-02-10 21:14:00,22.5,3.0,30.34,SSW,205,1.0,1.0,43,0.00,,,0.00,weatherlink.com 1.10,2013-02-11 02:14:00,
2013-02-10 21:28:00,20.7,0.0,30.34,SSW,212,0.0,1.0,41,0.00,,,0.00,weatherlink.com 1.10,2013-02-11 02:28:00,
2013-02-10 21:43:00,20.4,2.0,30.34,SSW,212,0.0,0.0,45,0.00,,,0.00,weatherlink.com 1.10,2013-02-11 02:43:00,
2013-02-10 21:59:00,20.4,3.0,30.34,SSW,212,0.0,1.0,48,0.00,,,0.00,weatherlink.com 1.10,2013-02-11 02:59:00,
2013-02-10 22:13:00,20.1,2.0,30.34,SSW,212,0.0,1.0,45,0.00,,,0.00,weatherlink.com 1.10,2013-02-11 03:13:00,
2013-02-10 22:29:00,20.0,1.0,30.34,SSW,212,0.0,1.0,43,0.00,,,0.00,weatherlink.com 1.10,2013-02-11 03:29:00,
2013-02-10 22:44:00,19.8,1.0,30.33,SSW,212,0.0,0.0,43,0.00,,,0.00,weatherlink.com 1.10,2013-02-11 03:44:00,
2013-02-10 22:59:00,19.7,0.0,30.33,WSW,248,0.0,1.0,43,0.00,,,0.00,weatherlink.com 1.10,2013-02-11 03:59:00,
2013-02-10 23:14:00,19.9,1.0,30.33,WSW,248,0.0,1.0,43,0.00,,,0.00,weatherlink.com 1.10,2013-02-11 04:14:00,
2013-02-10 23:29:00,19.8,1.0,30.32,WSW,248,1.0,1.0,44,0.00,,,0.00,weatherlink.com 1.10,2013-02-11 04:29:00,
2013-02-10 23:44:00,19.8,1.0,30.33,West,277,0.0,1.0,44,0.00,,,0.00,weatherlink.com 1.10,2013-02-11 04:44:00,
2013-02-10 23:59:00,19.6,1.0,30.32,West,277,0.0,1.0,44,0.00,,,0.00,weatherlink.com 1.10,2013-02-11 04:59:00,